CYBL

Campbell River Airport

Campbell River, , Canada
METAR CYBL 221506Z 30004KT 15SM FEW010 FEW030 SCT062 SCT230 00/M00 A2999 RMK SF1SC1SC1CI1 SLP161
Observed Flight Rules
Jan-22 @ 15:06 UTC (an hour ago) Visual Flight Rules
Wind Visibility Clouds
300° at 4 knots 15 miles
  • Few at 1,000' AGL
  • Few at 3,000' AGL
  • Scattered at 6,200' AGL
  • Scattered at 23,000' AGL
Temperatures Readings
Current 0°C / 32°F
Dewpoint 0°C / 32°F
Humidity 100%
Altimeter 29.99" Hg
Pressure 1016.1 hPa
Elevation 106
METAR CYBL 221506Z 30004KT 15SM FEW010 FEW030 SCT062 SCT230 00/M00 A2999 RMK SF1SC1SC1CI1 SLP161
Observed Flight Rules
Jan-22 @ 15:06 UTC
(an hour ago)
VFR
Wind Visibility
300° at 4 knots 15 miles
Clouds
  • Few at 1,000' AGL
  • Few at 3,000' AGL
  • Scattered at 6,200' AGL
  • Scattered at 23,000' AGL
Temperature Dewpoint
0°C / 32°F 0°C / 32°F
Humidity Altimeter Pressure
100% 29.99" Hg 1016.1 hPa